createdAt,value
2023-01-19T00:00:33.113Z,98749.13
2023-01-19T00:06:26.022Z,98753.78
2023-01-19T00:12:18.714Z,98765.59
2023-01-19T00:18:11.403Z,98782.22
2023-01-19T00:24:04.037Z,98782.84
2023-01-19T00:29:57.066Z,98792.78
2023-01-19T00:35:55.189Z,98792.97
2023-01-19T00:42:06.560Z,98799.34
2023-01-19T00:47:59.107Z,98807.56
2023-01-19T00:53:53.147Z,98821.06
2023-01-19T00:59:46.076Z,98825.84
2023-01-19T01:05:41.485Z,98829.75
2023-01-19T01:11:34.136Z,98839.16
2023-01-19T01:17:27.022Z,98840.75
2023-01-19T01:23:23.168Z,98841.69
2023-01-19T01:29:16.557Z,98851.84
2023-01-19T01:35:10.616Z,98860.16
2023-01-19T01:41:03.390Z,98865.06
2023-01-19T01:46:56.887Z,98863.41
2023-01-19T01:53:14.075Z,98858.81
2023-01-19T01:59:09.847Z,98875.13
2023-01-19T02:05:11.195Z,98870.78
2023-01-19T02:11:22.978Z,98860.84
2023-01-19T02:17:14.868Z,98867.34
2023-01-19T02:23:15.855Z,98873.44
2023-01-19T02:29:12.059Z,98884.19
2023-01-19T02:35:04.905Z,98891.44
2023-01-19T02:41:00.157Z,98890.38
2023-01-19T02:46:54.666Z,98894.63
2023-01-19T02:52:47.507Z,98887.81
2023-01-19T02:58:46.653Z,98882.47
2023-01-19T03:04:54.730Z,98883.66
2023-01-19T03:11:08.621Z,98895.47
2023-01-19T03:17:06.465Z,98893.56
2023-01-19T03:23:05.545Z,98886.84
2023-01-19T03:29:02.348Z,98895.16
2023-01-19T03:34:55.391Z,98899.09
2023-01-19T03:40:48.445Z,98894.63
2023-01-19T03:46:41.208Z,98898.88
2023-01-19T03:52:36.458Z,98896.13
2023-01-19T03:58:28.534Z,98884.06
2023-01-19T04:04:20.406Z,98891.84
2023-01-19T04:10:13.010Z,98906.13
2023-01-19T04:16:06.910Z,98920.41
2023-01-19T04:21:59.992Z,98913.06
2023-01-19T04:27:54.165Z,98926.59
2023-01-19T04:33:46.616Z,98941.19
2023-01-19T04:39:38.700Z,98946.63
2023-01-19T04:45:32.917Z,98962.31
2023-01-19T04:51:25.765Z,98985.00
2023-01-19T04:57:19.155Z,99010.78
2023-01-19T05:03:11.936Z,99010.69
2023-01-19T05:09:05.304Z,99013.56
2023-01-19T05:14:57.674Z,99026.88
2023-01-19T05:20:49.604Z,99020.06
2023-01-19T05:26:42.694Z,99004.38
2023-01-19T05:32:34.843Z,99013.34
2023-01-19T05:38:35.299Z,99022.56
2023-01-19T05:44:28.855Z,99016.09
2023-01-19T05:50:21.713Z,99020.06
2023-01-19T05:56:13.921Z,99022.19
2023-01-19T06:02:07.977Z,99040.72
2023-01-19T06:08:02.283Z,99062.88
2023-01-19T06:13:54.921Z,99068.28
2023-01-19T06:19:48.883Z,99073.50
2023-01-19T06:25:40.963Z,99080.13
2023-01-19T06:31:34.842Z,99075.31
2023-01-19T06:37:28.565Z,99100.72
2023-01-19T06:43:22.207Z,99103.00
2023-01-19T06:49:14.552Z,99108.56
2023-01-19T06:55:10.871Z,99101.13
2023-01-19T07:01:05.414Z,99113.78
2023-01-19T07:06:59.083Z,99114.66
2023-01-19T07:12:52.222Z,99106.44
2023-01-19T07:18:45.499Z,99114.75
2023-01-19T07:24:38.382Z,99108.38
2023-01-19T07:30:33.649Z,99115.59
2023-01-19T07:36:26.343Z,99117.69
2023-01-19T07:42:19.521Z,99115.31
2023-01-19T07:48:13.218Z,99109.88
2023-01-19T07:54:08.602Z,99118.34
2023-01-19T08:00:02.375Z,99117.47
2023-01-19T08:06:06.327Z,99126.00
2023-01-19T08:11:58.846Z,99139.81
2023-01-19T08:17:59.527Z,99149.66
2023-01-19T08:23:54.416Z,99163.44
2023-01-19T08:29:47.164Z,99156.41
2023-01-19T08:35:42.204Z,99167.31
2023-01-19T08:41:34.268Z,99179.56
2023-01-19T08:47:26.866Z,99168.63
2023-01-19T08:53:21.268Z,99163.84
2023-01-19T08:59:14.305Z,99165.78
2023-01-19T09:05:07.539Z,99183.06
2023-01-19T09:11:00.263Z,99189.59
2023-01-19T09:16:53.356Z,99198.88
2023-01-19T09:22:47.853Z,99209.97
2023-01-19T09:28:40.733Z,99207.81
2023-01-19T09:34:33.633Z,99206.84
2023-01-19T09:40:28.387Z,99208.94
2023-01-19T09:46:33.418Z,99204.63
2023-01-19T09:52:26.644Z,99200.75
2023-01-19T09:58:21.249Z,99188.91
2023-01-19T10:04:24.624Z,99177.41
2023-01-19T10:10:25.433Z,99172.03
2023-01-19T10:16:41.903Z,99166.19
2023-01-19T10:22:34.033Z,99175.94
2023-01-19T10:28:27.745Z,99187.22
2023-01-19T10:34:23.530Z,99185.59
2023-01-19T10:40:25.695Z,99189.13
2023-01-19T10:46:24.558Z,99181.81
2023-01-19T10:52:29.236Z,99188.03
2023-01-19T10:58:35.340Z,99190.50
2023-01-19T11:04:30.129Z,99179.41
2023-01-19T11:10:25.877Z,99185.50
2023-01-19T11:16:35.066Z,99183.56
2023-01-19T11:22:30.663Z,99172.59
2023-01-19T11:28:31.886Z,99175.91
2023-01-19T11:34:42.404Z,99171.88
2023-01-19T11:40:36.137Z,99167.72
2023-01-19T11:46:33.713Z,99163.78
2023-01-19T11:52:41.236Z,99165.03
2023-01-19T11:58:42.184Z,99161.19
2023-01-19T12:04:39.703Z,99152.16
2023-01-19T12:10:37.519Z,99149.56
2023-01-19T12:16:33.069Z,99134.53
2023-01-19T12:22:29.152Z,99124.34
2023-01-19T12:28:28.312Z,99121.94
2023-01-19T12:34:27.816Z,99118.03
2023-01-19T12:40:19.482Z,99122.19
2023-01-19T12:46:30.612Z,99134.38
2023-01-19T12:52:30.054Z,99133.41
2023-01-19T12:58:25.689Z,99130.22
2023-01-19T13:04:33.313Z,99128.38
2023-01-19T13:11:00.223Z,99143.03
2023-01-19T13:17:00.902Z,99134.25
2023-01-19T13:23:19.053Z,99139.19
2023-01-19T13:29:25.568Z,99148.41
2023-01-19T13:35:20.492Z,99160.06
2023-01-19T13:41:19.415Z,99155.44
2023-01-19T13:47:19.528Z,99161.97
2023-01-19T13:53:20.791Z,99167.59
2023-01-19T13:59:13.832Z,99171.34
2023-01-19T14:05:26.264Z,99171.34
2023-01-19T14:11:19.520Z,99181.75
2023-01-19T14:17:31.253Z,99174.91
2023-01-19T14:23:42.950Z,99180.81
2023-01-19T14:29:38.292Z,99190.22
2023-01-19T14:35:31.573Z,99195.13
2023-01-19T14:41:37.886Z,99201.13
2023-01-19T14:47:35.924Z,99203.00
2023-01-19T14:53:30.067Z,99211.81
2023-01-19T14:59:22.223Z,99220.66
2023-01-19T15:05:15.719Z,99232.19
2023-01-19T15:11:22.094Z,99237.75
2023-01-19T15:17:25.761Z,99233.03
2023-01-19T15:23:18.189Z,99245.28
2023-01-19T15:29:22.352Z,99244.78
2023-01-19T15:35:20.014Z,99258.69
2023-01-19T15:41:30.963Z,99268.28
2023-01-19T15:47:24.435Z,99264.19
2023-01-19T15:53:20.252Z,99260.81
2023-01-19T15:59:12.456Z,99262.34
2023-01-19T16:05:06.246Z,99264.59
2023-01-19T16:10:58.204Z,99273.88
2023-01-19T16:16:50.566Z,99278.44
2023-01-19T16:22:43.526Z,99278.41
2023-01-19T16:28:38.071Z,99282.31
2023-01-19T16:34:30.663Z,99289.63
2023-01-19T16:40:23.543Z,99282.44
2023-01-19T16:46:31.159Z,99290.34
2023-01-19T16:52:23.418Z,99295.53
2023-01-19T16:58:15.807Z,99298.63
2023-01-19T17:04:08.751Z,99304.19
2023-01-19T17:10:02.121Z,99293.69
2023-01-19T17:16:00.803Z,99289.38
2023-01-19T17:21:53.562Z,99298.97
2023-01-19T17:27:48.834Z,99295.47
2023-01-19T17:33:44.955Z,99292.53
2023-01-19T17:39:39.619Z,99313.16
2023-01-19T17:45:36.612Z,99314.19
2023-01-19T17:51:29.373Z,99325.66
2023-01-19T17:57:21.810Z,99330.00
2023-01-19T18:03:18.683Z,99330.88
2023-01-19T18:09:11.445Z,99341.31
2023-01-19T18:15:08.844Z,99330.56
2023-01-19T18:21:04.809Z,99340.91
2023-01-19T18:26:57.872Z,99349.88
2023-01-19T18:32:52.379Z,99347.84
2023-01-19T18:38:46.004Z,99342.28
2023-01-19T18:44:38.942Z,99338.00
2023-01-19T18:50:31.921Z,99333.97
2023-01-19T18:56:25.054Z,99336.56
2023-01-19T19:02:17.604Z,99337.22
2023-01-19T19:08:10.135Z,99351.06
2023-01-19T19:14:03.318Z,99361.00
2023-01-19T19:19:55.851Z,99363.13
2023-01-19T19:25:48.912Z,99372.63
2023-01-19T19:31:43.151Z,99386.59
2023-01-19T19:37:36.281Z,99399.13
2023-01-19T19:43:28.853Z,99406.41
2023-01-19T19:49:21.712Z,99416.97
2023-01-19T19:55:14.976Z,99430.22
2023-01-19T20:01:10.939Z,99433.84
2023-01-19T20:07:03.775Z,99441.75
2023-01-19T20:12:56.055Z,99447.84
2023-01-19T20:18:54.454Z,99453.69
2023-01-19T20:24:52.675Z,99463.78
2023-01-19T20:30:46.211Z,99460.06
2023-01-19T20:36:38.935Z,99449.66
2023-01-19T20:42:30.643Z,99446.63
2023-01-19T20:48:23.343Z,99455.22
2023-01-19T20:54:19.503Z,99467.41
2023-01-19T21:00:12.669Z,99471.69
2023-01-19T21:06:05.267Z,99466.78
2023-01-19T21:11:58.040Z,99456.56
2023-01-19T21:17:50.004Z,99452.44
2023-01-19T21:23:44.773Z,99462.88
2023-01-19T21:29:37.473Z,99464.59
2023-01-19T21:35:31.088Z,99465.94
2023-01-19T21:41:25.671Z,99462.13
2023-01-19T21:47:18.343Z,99474.91
2023-01-19T21:53:11.773Z,99477.09
2023-01-19T21:59:05.342Z,99466.22
2023-01-19T22:04:58.424Z,99470.31
2023-01-19T22:10:51.126Z,99476.34
2023-01-19T22:16:43.361Z,99484.94
2023-01-19T22:22:37.363Z,99492.75
2023-01-19T22:28:30.612Z,99506.16
2023-01-19T22:34:23.451Z,99509.00
2023-01-19T22:40:16.770Z,99510.84
2023-01-19T22:46:09.644Z,99525.00
2023-01-19T22:52:02.183Z,99529.00
2023-01-19T22:57:54.390Z,99529.78
2023-01-19T23:03:47.687Z,99531.44
2023-01-19T23:09:40.462Z,99535.41
2023-01-19T23:15:34.352Z,99528.28
2023-01-19T23:21:29.722Z,99530.06
2023-01-19T23:27:23.141Z,99531.84
2023-01-19T23:33:15.733Z,99533.69
2023-01-19T23:39:13.863Z,99546.00
2023-01-19T23:45:07.389Z,99550.50
2023-01-19T23:50:59.649Z,99562.69
2023-01-19T23:56:52.656Z,99563.00
